Station: Badgingarra  

  Atmospheric Gas Attenuation - ITU Rec 676-11   ----------------- dB/100km -----------------
Date Time Temp RH % AH g/m3 Dew Point Wind Direction Speed kph Gust kph Barometer mB Rainfall Since 9am 24GHz 47GHz 76GHz 122GHz 134GHz 241GHz
06/05 10:50 19.4 47 7.84 7.8 35 37 1013.1 0 17.7 23.2 34.3 89.9 82.4 283.3
06/05 10:40 19.5 47 7.89 7.9 30 39 1013.1 0 17.8 23.2 34.5 90.3 82.9 285.0
06/05 10:30 19 47 7.66 7.4 33 44 1013.1 0 17.4 23.0 33.8 88.6 80.7 277.1
06/05 10:20 19.1 47 7.7 7.5 35 39 1013.1 0 17.4 23.1 33.9 88.9 81.1 278.5
06/05 10:10 18.7 48 7.68 7.7 33 39 1013.1 0 17.4 23.1 34.0 89.1 81.2 279.0
06/05 10:00 18.5 50 7.91 7.9 33 43 1013.1 0 17.9 23.5 35.0 91.6 84.2 289.4
06/05 09:50 18.3 50 7.82 7.7 33 41 1013.1 0 17.7 23.4 34.7 90.9 83.3 286.3
06/05 09:40 17.8 51 7.74 7.5 35 39 1013.1 0 17.6 23.5 34.6 90.7 82.9 284.7
06/05 09:30 17.5 51 7.6 7.3 26 37 1013.1 0 17.3 23.3 34.2 89.7 81.5 279.8
06/05 09:20 17.1 53 7.71 7.4 28 32 1013.1 0 17.5 23.6 34.8 91.2 83.3 285.9
06/05 09:00 16.8 56 8.01 8 19 26 1013.1 0 18.2 24.1 36.1 94.5 87.3 299.9
06/05 07:40 12.7 68 7.57 6.9 17 20 1013.1 0 17.4 24.6 36.2 94.9 86.2 295.8
06/05 07:30 12.4 69 7.54 6.9 15 24 1013.1 0 17.4 24.6 36.2 95.0 86.2 295.5
06/05 07:20 12.1 67 7.19 6.3 15 15 1013.1 0 16.7 24.1 35.0 91.7 82.0 280.8
06/05 07:10 12.5 67 7.37 6.5 17 19 1013.1 0 17.0 24.3 35.5 93.1 83.9 287.5
06/05 07:00 12.5 66 7.26 6.3 17 28 1013.1 0 16.8 24.1 35.1 91.9 82.5 282.6
06/05 06:50 12.6 66 7.3 6.4 15 19 1013.1 0 16.9 24.2 35.2 92.2 82.9 284.0
06/05 06:40 12.6 66 7.3 6.4 20 26 1013.1 0 16.9 24.2 35.2 92.2 82.9 284.0
06/05 06:30 12.5 66 7.26 6.3 19 24 1013.1 0 16.8 24.1 35.1 91.9 82.5 282.6
06/05 06:20 12.5 67 7.37 6.5 19 24 1013.1 0 17.0 24.3 35.5 93.1 83.9 287.5
06/05 06:10 11.6 70 7.28 6.3 15 19 1013.1 0 16.9 24.4 35.6 93.2 83.7 286.7
06/05 06:00 11.3 71 7.24 6.2 17 20 1013.1 0 16.8 24.4 35.6 93.1 83.5 286.0
06/05 05:50 11.1 72 7.25 6.2 17 19 1013.1 0 16.8 24.5 35.7 93.5 83.8 287.2
06/05 05:40 11.2 72 7.3 6.3 20 20 1013.1 0 16.9 24.5 35.8 93.9 84.4 289.1
06/05 05:30 11.2 72 7.3 6.3 19 22 1013.1 0 16.9 24.5 35.8 93.9 84.4 289.1
06/05 05:20 11.4 71 7.29 6.3 19 22 1013.1 0 16.9 24.5 35.7 93.5 84.0 287.9
06/05 05:10 11.5 70 7.23 6.2 19 20 1013.1 0 16.8 24.3 35.4 92.8 83.2 284.8
06/05 05:00 11.7 70 7.32 6.4 20 24 1013.1 0 16.9 24.4 35.7 93.5 84.1 288.2
06/05 04:50 11.6 70 7.28 6.3 20 22 1013.1 0 16.9 24.4 35.6 93.2 83.7 286.7
06/05 04:40 11.6 70 7.28 6.3 19 20 1013.1 0 16.9 24.4 35.6 93.2 83.7 286.7
06/05 04:30 11.8 69 7.26 6.3 19 26 1013.1 0 16.8 24.3 35.4 92.7 83.2 285.1
06/05 04:20 11.8 69 7.26 6.3 17 19 1013.1 0 16.8 24.3 35.4 92.7 83.2 285.1
06/05 04:10 12.3 67 7.28 6.3 24 26 1013.1 0 16.8 24.2 35.3 92.4 82.9 284.2
06/05 04:00 12.4 66 7.21 6.2 22 30 1013.1 0 16.7 24.1 35.0 91.5 81.9 280.7
06/05 03:50 12.8 65 7.28 6.4 20 24 1013.1 0 16.8 24.1 35.1 91.8 82.4 282.4
06/05 03:40 12.9 64 7.21 6.4 19 24 1013.1 0 16.7 23.9 34.7 90.9 81.4 278.9
06/05 03:30 12.7 65 7.24 6.3 20 24 1013.1 0 16.7 24.0 34.9 91.5 82.0 281.0
06/05 03:20 13 64 7.26 6.5 22 24 1013.1 0 16.8 24.0 34.9 91.3 82.0 280.8
06/05 03:10 13 64 7.26 6.3 17 20 1013.1 0 16.8 24.0 34.9 91.3 82.0 280.8
06/05 03:00 13.3 63 7.28 6.4 20 24 1013.1 0 16.8 23.9 34.8 91.2 81.9 280.6
06/05 02:50 13.3 63 7.28 6.4 20 24 1013.1 0 16.8 23.9 34.8 91.2 81.9 280.6
06/05 02:40 13.3 63 7.28 6.4 19 22 1013.1 0 16.8 23.9 34.8 91.2 81.9 280.6
06/05 02:30 13.4 62 7.21 6.3 15 19 1013.1 0 16.6 23.8 34.5 90.4 80.9 277.2
06/05 02:20 13.6 61 7.18 6.2 17 19 1013.1 0 16.6 23.7 34.3 89.8 80.3 275.2
06/05 02:10 13.6 61 7.18 6.2 17 22 1013.1 0 16.6 23.7 34.3 89.8 80.3 275.2
06/05 02:00 13.7 61 7.22 6.3 17 24 1013.1 0 16.7 23.7 34.4 90.1 80.7 276.6
06/05 01:50 14.1 59 7.16 6.2 19 22 1013.1 0 16.5 23.5 34.0 89.1 79.6 272.6
06/05 01:40 14.2 59 7.2 6.3 20 24 1013.1 0 16.6 23.6 34.2 89.4 80.0 274.0
06/05 01:30 14 60 7.24 6.4 19 24 1013.1 0 16.7 23.7 34.4 90.0 80.7 276.4
06/05 01:20 13.9 59 7.07 6.2 20 24 1013.1 0 16.3 23.5 33.8 88.4 78.6 269.3
06/05 01:10 13.8 61 7.27 6.4 20 22 1013.1 0 16.8 23.8 34.6 90.5 81.2 278.4
06/05 01:00 13.7 61 7.22 6.3 19 24 1013.1 0 16.7 23.7 34.4 90.1 80.7 276.6
06/05 00:50 13.7 59 6.99 6 19 22 1013.1 0 16.2 23.4 33.6 87.8 77.9 266.5
06/05 00:40 14.3 58 7.13 6.1 19 20 1013.1 0 16.4 23.4 33.8 88.6 79.0 270.6
06/05 00:30 14.4 58 7.17 6.3 22 28 1013.1 0 16.5 23.5 34.0 88.9 79.4 272.0
06/05 00:20 14.5 58 7.21 6.3 20 24 1013.1 0 16.6 23.5 34.1 89.1 79.8 273.4
06/05 00:10 14.7 56 7.05 6.2 20 24 1013.1 0 16.2 23.2 33.4 87.3 77.6 265.8
06/05 00:00 14.5 58 7.21 6.3 20 24 1013.1 0 16.6 23.5 34.1 89.1 79.8 273.4
05/05 23:50 14.6 56 7.01 6.1 20 22 1013.1 0 16.2 23.2 33.3 87.0 77.2 264.4
05/05 23:40 14.8 56 7.09 6.1 19 22 1013.1 0 16.3 23.3 33.5 87.6 78.0 267.2
05/05 23:30 15.2 55 7.14 6.2 19 24 1013.1 0 16.4 23.2 33.5 87.7 78.2 268.0
05/05 23:20 15.3 55 7.18 6.3 19 22 1013.1 0 16.5 23.3 33.6 88.0 78.6 269.4
05/05 23:10 15.4 55 7.23 6.4 20 22 1013.1 0 16.6 23.3 33.8 88.3 79.1 271.2
05/05 23:00 15.3 55 7.18 6.3 19 22 1013.1 0 16.5 23.3 33.6 88.0 78.6 269.4
05/05 22:50 15.3 55 7.18 6.5 19 20 1013.1 0 16.5 23.3 33.6 88.0 78.6 269.4
05/05 22:40 15.1 56 7.22 6.4 19 22 1013.1 0 16.6 23.4 33.8 88.6 79.3 271.8
05/05 22:30 15.2 56 7.27 6.5 19 24 1013.1 0 16.7 23.4 34.0 89.0 79.8 273.6
05/05 22:20 14.6 58 7.26 6.6 17 22 1013.1 0 16.7 23.6 34.2 89.5 80.3 275.2
05/05 22:10 14.3 60 7.37 6.8 13 15 1013.1 0 16.9 23.8 34.8 91.0 82.0 281.1
05/05 22:00 14.3 63 7.74 7.4 13 17 1013.1 0 17.7 24.4 36.2 94.8 86.7 297.4
05/05 21:50 14.1 65 7.89 7.6 13 15 1013.1 0 18.1 24.7 36.8 96.6 88.8 304.9
05/05 21:40 12.8 74 8.29 8.4 13 15 1013.1 0 19.0 25.7 39.0 102.4 95.5 328.3
05/05 21:30 13.2 75 8.61 8.9 15 17 1013.1 0 19.6 26.1 40.1 105.3 99.3 341.5
05/05 21:20 13.6 73 8.59 8.8 17 17 1013.1 0 19.6 25.9 39.9 104.6 98.5 338.9
05/05 21:10 13.8 72 8.58 8.8 17 19 1013.1 0 19.5 25.9 39.7 104.2 98.1 337.5
05/05 21:00 14.2 71 8.67 9 19 22 1013.1 0 19.7 25.9 39.9 104.7 98.8 340.0
05/05 20:50 14.5 70 8.71 9.1 19 20 1013.1 0 19.8 25.9 39.9 104.7 98.9 340.5
05/05 20:40 14.8 68 8.61 8.9 19 20 1013.1 0 19.6 25.6 39.3 103.2 97.3 334.6
05/05 20:30 15.4 67 8.8 9.3 22 24 1013.1 0 19.9 25.7 39.8 104.4 99.0 340.7
05/05 20:20 15.5 67 8.86 9.4 22 24 1013.1 0 20.1 25.8 40.0 104.9 99.6 343.0
05/05 20:10 15.1 66 8.51 8.8 19 20 1013.1 0 19.3 25.4 38.8 101.8 95.6 328.8
05/05 20:00 15.3 64 8.36 8.5 17 19 1013.1 0 19.0 25.1 38.1 100.0 93.4 321.2
05/05 19:50 15.7 61 8.16 8.2 17 19 1013.1 0 18.6 24.7 37.1 97.4 90.4 310.7
05/05 19:40 14.7 58 7.3 6.5 17 19 1013.1 0 16.8 23.6 34.3 89.8 80.7 276.6
05/05 19:30 15 56 7.18 6.3 15 17 1013.1 0 16.5 23.3 33.7 88.3 78.9 270.4
05/05 19:20 15.1 56 7.22 6.4 15 15 1013.1 0 16.6 23.4 33.8 88.6 79.3 271.8
05/05 19:10 15.2 54 7.01 5.9 13 15 1013.1 0 16.1 23.0 33.0 86.4 76.6 262.4
05/05 19:00 15.6 53 7.05 6.1 13 15 1013.1 0 16.2 23.0 33.0 86.3 76.7 262.8
05/05 18:50 15.3 54 7.05 6 13 13 1013.1 0 16.2 23.1 33.1 86.7 77.0 263.8
05/05 18:40 15.4 52 6.83 5.8 11 11 1013.1 0 15.8 22.7 32.3 84.4 74.3 254.1
05/05 18:30 15.6 53 7.05 6.1 11 13 1013.1 0 16.2 23.0 33.0 86.3 76.7 262.8
05/05 18:20 17.5 46 6.86 5.7 11 11 1013.1 0 15.7 22.2 31.6 82.5 72.7 248.8
05/05 18:10 16.4 47 6.56 5.3 9 9 1013.1 0 15.1 22.1 30.9 80.8 70.1 239.7
05/05 18:00 17.3 45 6.63 5.3 9 9 1013.1 0 15.3 22.0 30.8 80.5 70.2 239.9
05/05 17:50 17.9 43 6.56 5.1 7 7 1013.1 0 15.1 21.7 30.4 79.3 68.8 235.3
05/05 17:40 18.8 40 6.44 5.2 11 11 1013.1 0 14.8 21.3 29.6 77.3 66.7 227.9
05/05 17:30 19.8 39 6.66 5.5 11 13 1013.1 0 15.2 21.4 30.0 78.4 68.3 233.9
05/05 17:20 20.9 35 6.37 5.2 13 13 1013.1 0 14.6 20.8 28.6 74.7 64.2 219.5
05/05 17:10 21.5 36 6.79 5.8 11 13 1013.1 0 15.4 21.2 29.8 77.9 68.4 234.2
05/05 17:00 22.1 35 6.83 5.9 11 15 1013.1 0 15.5 21.1 29.8 77.7 68.3 234.0

Last Refresh: 06-May-2026 12:35:54

Bureau of Meteorology